Bruno Marks — V7EK8 — position and weather

sailwx.info

Track history (hours):
 
Tides and Currents Weather Stations Pressure Air Temp Water Temp Dewpoint Dewpoint Depression Visibility Wind Speed Wind Dir Waves Ship Positions

Bruno Marks

Last reported at 2017-Oct-27 08:01 UTC. Time now 2017-Nov-18 04:33 UTC.
Position S 32°48' W 071°42'.
Warning: this ship's position is 21 days out of date.

Length 292 m; draft 6.3 m.

Type: Cargo ship. MMSI: 538006292.

Date/timePositionNaut miles runAvg speedWind from/ knotsBaromVisibWave heightAir tempDewpointWater temp
2017-Oct-27 08:01S 32°48' W 071°42'112.2
2017-Oct-27 07:57S 32°49' W 071°41'512.2
2017-Oct-27 07:30S 32°54' W 071°39'611.8
2017-Oct-27 07:00S 32°60' W 071°36'2 1.1
2017-Oct-27 05:33S 33°01' W 071°36'0 0.1
2017-Oct-27 03:18S 33°01' W 071°36'0 0.2
2017-Oct-27 03:00S 33°01' W 071°36'0 0.0
2017-Oct-27 02:30S 33°01' W 071°36'0 0.1
2017-Oct-27 01:50S 33°01' W 071°36'0 0.1
2017-Oct-27 01:22S 33°01' W 071°36'1 3.7
2017-Oct-27 01:00S 33°01' W 071°37'510.6
2017-Oct-27 00:30S 32°56' W 071°38'510.9
2017-Oct-27 00:00S 32°50' W 071°38'610.3
2017-Oct-26 23:26S 32°44' W 071°37'4 9.2
2017-Oct-26 23:00S 32°44' W 071°32'2 0.3
2017-Oct-26 16:10S 32°45' W 071°30'0 0.0
2017-Oct-26 15:55S 32°45' W 071°30'1 0.0
2017-Oct-24 21:45S 32°45' W 071°29'0 0.0
2017-Oct-24 21:21S 32°45' W 071°29'0 0.0
2017-Oct-24 20:51S 32°45' W 071°29'0 0.0
2017-Oct-23 22:57S 32°45' W 071°29'0 0.0
2017-Oct-23 22:27S 32°45' W 071°29'0 0.0
2017-Oct-23 21:51S 32°45' W 071°29'0 0.0
2017-Oct-23 21:27S 32°45' W 071°29'0 0.0
2017-Oct-23 20:57S 32°45' W 071°29'1 0.1
2017-Oct-23 13:56S 32°45' W 071°31'1 0.2
2017-Oct-23 11:03S 32°44' W 071°31'0 0.3
2017-Oct-23 11:00S 32°44' W 071°31'0 0.2
2017-Oct-23 10:30S 32°44' W 071°31'0 0.0
2017-Oct-23 09:45S 32°44' W 071°31'0 0.0
2017-Oct-22 21:24S 32°44' W 071°31'0 0.0
2017-Oct-22 21:00S 32°44' W 071°31'0 0.0
2017-Oct-22 20:30S 32°44' W 071°31'0 0.0
2017-Oct-22 19:54S 32°44' W 071°31'0 0.0
2017-Oct-22 18:48S 32°44' W 071°31'0 0.0
2017-Oct-22 18:29S 32°44' W 071°31'0 0.0
2017-Oct-22 16:27S 32°44' W 071°31'0 0.0
2017-Oct-22 15:59S 32°44' W 071°31'0 0.0
2017-Oct-22 14:56S 32°44' W 071°31'0 0.1
2017-Oct-22 14:26S 32°44' W 071°31'1 1.5
2017-Oct-22 14:00S 32°44' W 071°31'2 4.1
2017-Oct-22 13:30S 32°45' W 071°34'3 5.3
2017-Oct-22 13:00S 32°45' W 071°37'4 8.7
2017-Oct-22 12:30S 32°41' W 071°38'15 8.1
2017-Oct-22 10:39S 32°27' W 071°44'9 1.4
2017-Oct-22 04:36S 32°35' W 071°43'0 1.4
2017-Oct-22 04:30S 32°35' W 071°43'1 1.6
2017-Oct-22 03:52S 32°36' W 071°43'1 1.9
2017-Oct-22 03:30S 32°37' W 071°42'9 1.3
2017-Oct-21 20:56S 32°29' W 071°38'1 2.5
2017-Oct-21 20:30S 32°30' W 071°38'1 2.4
2017-Oct-21 20:00S 32°31' W 071°38'1 2.5
2017-Oct-21 19:29S 32°33' W 071°38'1 2.5
2017-Oct-21 19:00S 32°34' W 071°38'1 2.3
2017-Oct-21 18:30S 32°35' W 071°38'1 2.2
2017-Oct-21 18:00S 32°36' W 071°38'1 2.2
2017-Oct-21 17:30S 32°37' W 071°39'1 2.2
2017-Oct-21 17:00S 32°38' W 071°39'1 2.2
2017-Oct-21 16:30S 32°39' W 071°39'1 2.1
2017-Oct-21 16:00S 32°40' W 071°39'1 2.0
2017-Oct-21 15:30S 32°41' W 071°39'1 1.8
2017-Oct-21 15:00S 32°42' W 071°39'3 5.6
2017-Oct-21 14:30S 32°44' W 071°36'2 1.7
2017-Oct-21 13:30S 32°45' W 071°37'1 1.5
2017-Oct-21 13:00S 32°46' W 071°37'0 0.9
2017-Oct-21 12:30S 32°46' W 071°38'612.7
2017-Oct-21 12:00S 32°49' W 071°44'713.1
2017-Oct-21 11:30S 32°53' W 071°51'612.9
2017-Oct-21 11:00S 32°56' W 071°58'912.6
2017-Oct-21 10:19S 33°00' W 072°07'  
Track history (hours):
 
Tides and Currents Weather Stations Pressure Air Temp Water Temp Dewpoint Dewpoint Depression Visibility Wind Speed Wind Dir Waves Ship Positions

Bruno Marks

Last reported at 2017-Oct-27 08:01 UTC. Time now 2017-Nov-18 04:33 UTC.
Position S 32°48' W 071°42'.
Warning: this ship's position is 21 days out of date.

Length 292 m; draft 6.3 m.

Type: Cargo ship. MMSI: 538006292.

Date/timePositionNaut miles runAvg speedWind from/ knotsBaromVisibWave heightAir tempDewpointWater temp
2017-Oct-27 08:01S 32°48' W 071°42'112.2
2017-Oct-27 07:57S 32°49' W 071°41'512.2
2017-Oct-27 07:30S 32°54' W 071°39'611.8
2017-Oct-27 07:00S 32°60' W 071°36'2 1.1
2017-Oct-27 05:33S 33°01' W 071°36'0 0.1
2017-Oct-27 03:18S 33°01' W 071°36'0 0.2
2017-Oct-27 03:00S 33°01' W 071°36'0 0.0
2017-Oct-27 02:30S 33°01' W 071°36'0 0.1
2017-Oct-27 01:50S 33°01' W 071°36'0 0.1
2017-Oct-27 01:22S 33°01' W 071°36'1 3.7
2017-Oct-27 01:00S 33°01' W 071°37'510.6
2017-Oct-27 00:30S 32°56' W 071°38'510.9
2017-Oct-27 00:00S 32°50' W 071°38'610.3
2017-Oct-26 23:26S 32°44' W 071°37'4 9.2
2017-Oct-26 23:00S 32°44' W 071°32'2 0.3
2017-Oct-26 16:10S 32°45' W 071°30'0 0.0
2017-Oct-26 15:55S 32°45' W 071°30'1 0.0
2017-Oct-24 21:45S 32°45' W 071°29'0 0.0
2017-Oct-24 21:21S 32°45' W 071°29'0 0.0
2017-Oct-24 20:51S 32°45' W 071°29'0 0.0
2017-Oct-23 22:57S 32°45' W 071°29'0 0.0
2017-Oct-23 22:27S 32°45' W 071°29'0 0.0
2017-Oct-23 21:51S 32°45' W 071°29'0 0.0
2017-Oct-23 21:27S 32°45' W 071°29'0 0.0
2017-Oct-23 20:57S 32°45' W 071°29'1 0.1
2017-Oct-23 13:56S 32°45' W 071°31'1 0.2
2017-Oct-23 11:03S 32°44' W 071°31'0 0.3
2017-Oct-23 11:00S 32°44' W 071°31'0 0.2
2017-Oct-23 10:30S 32°44' W 071°31'0 0.0
2017-Oct-23 09:45S 32°44' W 071°31'0 0.0
2017-Oct-22 21:24S 32°44' W 071°31'0 0.0
2017-Oct-22 21:00S 32°44' W 071°31'0 0.0
2017-Oct-22 20:30S 32°44' W 071°31'0 0.0
2017-Oct-22 19:54S 32°44' W 071°31'0 0.0
2017-Oct-22 18:48S 32°44' W 071°31'0 0.0
2017-Oct-22 18:29S 32°44' W 071°31'0 0.0
2017-Oct-22 16:27S 32°44' W 071°31'0 0.0
2017-Oct-22 15:59S 32°44' W 071°31'0 0.0
2017-Oct-22 14:56S 32°44' W 071°31'0 0.1
2017-Oct-22 14:26S 32°44' W 071°31'1 1.5
2017-Oct-22 14:00S 32°44' W 071°31'2 4.1
2017-Oct-22 13:30S 32°45' W 071°34'3 5.3
2017-Oct-22 13:00S 32°45' W 071°37'4 8.7
2017-Oct-22 12:30S 32°41' W 071°38'15 8.1
2017-Oct-22 10:39S 32°27' W 071°44'9 1.4
2017-Oct-22 04:36S 32°35' W 071°43'0 1.4
2017-Oct-22 04:30S 32°35' W 071°43'1 1.6
2017-Oct-22 03:52S 32°36' W 071°43'1 1.9
2017-Oct-22 03:30S 32°37' W 071°42'9 1.3
2017-Oct-21 20:56S 32°29' W 071°38'1 2.5
2017-Oct-21 20:30S 32°30' W 071°38'1 2.4
2017-Oct-21 20:00S 32°31' W 071°38'1 2.5
2017-Oct-21 19:29S 32°33' W 071°38'1 2.5
2017-Oct-21 19:00S 32°34' W 071°38'1 2.3
2017-Oct-21 18:30S 32°35' W 071°38'1 2.2
2017-Oct-21 18:00S 32°36' W 071°38'1 2.2
2017-Oct-21 17:30S 32°37' W 071°39'1 2.2
2017-Oct-21 17:00S 32°38' W 071°39'1 2.2
2017-Oct-21 16:30S 32°39' W 071°39'1 2.1
2017-Oct-21 16:00S 32°40' W 071°39'1 2.0
2017-Oct-21 15:30S 32°41' W 071°39'1 1.8
2017-Oct-21 15:00S 32°42' W 071°39'3 5.6
2017-Oct-21 14:30S 32°44' W 071°36'2 1.7
2017-Oct-21 13:30S 32°45' W 071°37'1 1.5
2017-Oct-21 13:00S 32°46' W 071°37'0 0.9
2017-Oct-21 12:30S 32°46' W 071°38'612.7
2017-Oct-21 12:00S 32°49' W 071°44'713.1
2017-Oct-21 11:30S 32°53' W 071°51'612.9
2017-Oct-21 11:00S 32°56' W 071°58'912.6
2017-Oct-21 10:19S 33°00' W 072°07'  

Dump ship's entire track history